createdAt,value
2022-11-04T00:00:55.366Z,99434.94
2022-11-04T00:03:22.458Z,99439.34
2022-11-04T00:05:49.354Z,99446.25
2022-11-04T00:08:25.238Z,99448.13
2022-11-04T00:11:15.256Z,99450.13
2022-11-04T00:13:42.587Z,99455.69
2022-11-04T00:16:29.158Z,99466.28
2022-11-04T00:18:56.289Z,99486.72
2022-11-04T00:21:41.804Z,99474.22
2022-11-04T00:24:30.933Z,99476.78
2022-11-04T00:27:17.356Z,99484.41
2022-11-04T00:29:44.787Z,99475.28
2022-11-04T00:32:30.462Z,99470.75
2022-11-04T00:34:57.727Z,99464.66
2022-11-04T00:37:24.656Z,99475.16
2022-11-04T00:39:52.028Z,99492.16
2022-11-04T00:42:19.067Z,99494.16
2022-11-04T00:44:46.045Z,99501.97
2022-11-04T00:47:13.082Z,99487.63
2022-11-04T00:49:40.384Z,99497.41
2022-11-04T00:52:07.278Z,99500.25
2022-11-04T00:54:34.419Z,99472.97
2022-11-04T00:57:01.341Z,99455.94
2022-11-04T00:59:28.839Z,99467.59
2022-11-04T01:01:56.806Z,99469.94
2022-11-04T01:04:24.119Z,99480.75
2022-11-04T01:06:51.344Z,99475.34
2022-11-04T01:09:18.714Z,99477.22
2022-11-04T01:11:45.738Z,99487.84
2022-11-04T01:14:13.087Z,99478.91
2022-11-04T01:16:40.455Z,99497.78
2022-11-04T01:19:07.624Z,99492.94
2022-11-04T01:21:34.573Z,99497.31
2022-11-04T01:24:01.732Z,99495.31
2022-11-04T01:26:29.950Z,99499.69
2022-11-04T01:28:58.294Z,99496.16
2022-11-04T01:31:30.220Z,99506.78
2022-11-04T01:33:58.572Z,99508.13
2022-11-04T01:36:26.575Z,99518.38
2022-11-04T01:38:56.739Z,99519.66
2022-11-04T01:41:28.142Z,99512.03
2022-11-04T01:44:04.104Z,99507.81
2022-11-04T01:46:39.438Z,99507.44
2022-11-04T01:49:31.616Z,99521.41
2022-11-04T01:52:08.368Z,99527.97
2022-11-04T01:54:36.991Z,99535.50
2022-11-04T01:57:08.854Z,99540.19
2022-11-04T01:59:39.430Z,99540.34
2022-11-04T02:02:07.351Z,99564.75
2022-11-04T02:04:36.373Z,99561.53
2022-11-04T02:07:07.482Z,99572.47
2022-11-04T02:09:36.677Z,99569.38
2022-11-04T02:12:22.817Z,99575.63
2022-11-04T02:14:51.414Z,99579.47
2022-11-04T02:17:18.284Z,99568.16
2022-11-04T02:20:16.188Z,99574.53
2022-11-04T02:23:36.085Z,99577.69
2022-11-04T02:26:24.695Z,99586.06
2022-11-04T02:29:19.728Z,99592.63
2022-11-04T02:32:11.397Z,99593.78
2022-11-04T02:35:04.861Z,99587.53
2022-11-04T02:37:57.880Z,99589.50
2022-11-04T02:40:53.414Z,99576.19
2022-11-04T02:43:49.833Z,99586.97
2022-11-04T02:47:05.449Z,99587.28
2022-11-04T02:49:49.033Z,99581.03
2022-11-04T02:52:51.333Z,99570.44
2022-11-04T02:55:34.755Z,99588.88
2022-11-04T02:58:06.160Z,99605.47
2022-11-04T03:00:34.573Z,99601.41
2022-11-04T03:03:11.348Z,99602.13
2022-11-04T03:05:41.012Z,99592.50
2022-11-04T03:08:27.174Z,99588.22
2022-11-04T03:11:03.347Z,99600.13
2022-11-04T03:13:43.904Z,99599.03
2022-11-04T03:16:17.611Z,99592.94
2022-11-04T03:19:12.502Z,99605.84
2022-11-04T03:21:50.360Z,99619.47
2022-11-04T03:24:17.541Z,99621.44
2022-11-04T03:27:21.436Z,99623.59
2022-11-04T03:30:09.253Z,99633.53
2022-11-04T03:33:07.633Z,99635.66
2022-11-04T03:35:34.937Z,99642.72
2022-11-04T03:38:02.427Z,99645.97
2022-11-04T03:40:29.699Z,99646.84
2022-11-04T03:43:10.240Z,99647.53
2022-11-04T03:45:39.270Z,99670.91
2022-11-04T03:48:06.425Z,99689.94
2022-11-04T03:50:45.093Z,99680.69
2022-11-04T03:53:15.510Z,99680.69
2022-11-04T03:55:42.392Z,99684.09
2022-11-04T03:58:46.551Z,99698.28
2022-11-04T04:02:06.060Z,99696.41
2022-11-04T04:04:36.648Z,99699.13
2022-11-04T04:07:21.352Z,99685.81
2022-11-04T04:10:35.760Z,99720.25
2022-11-04T04:13:10.461Z,99719.72
2022-11-04T04:15:57.991Z,99704.97
2022-11-04T04:18:58.848Z,99721.13
2022-11-04T04:22:17.422Z,99709.91
2022-11-04T04:25:06.301Z,99715.88
2022-11-04T04:27:35.334Z,99711.66
2022-11-04T04:30:15.089Z,99732.03
2022-11-04T04:32:45.607Z,99737.28
2022-11-04T04:35:31.746Z,99742.81
2022-11-04T04:38:21.664Z,99757.13
2022-11-04T04:41:42.399Z,99750.19
2022-11-04T04:44:43.428Z,99749.06
2022-11-04T04:47:19.939Z,99768.59
2022-11-04T04:49:58.763Z,99773.16
2022-11-04T04:52:33.040Z,99781.94
2022-11-04T04:55:00.429Z,99778.38
2022-11-04T04:57:27.424Z,99774.28
2022-11-04T04:59:54.553Z,99779.78
2022-11-04T05:02:21.843Z,99778.09
2022-11-04T05:04:49.139Z,99779.38
2022-11-04T05:07:16.123Z,99782.22
2022-11-04T05:09:43.107Z,99775.56
2022-11-04T05:12:10.416Z,99773.69
2022-11-04T05:14:37.428Z,99766.63
2022-11-04T05:17:04.733Z,99780.06
2022-11-04T05:19:31.980Z,99768.47
2022-11-04T05:21:59.204Z,99776.53
2022-11-04T05:24:26.373Z,99783.63
2022-11-04T05:26:53.270Z,99791.00
2022-11-04T05:29:20.459Z,99795.53
2022-11-04T05:31:47.731Z,99791.84
2022-11-04T05:34:15.410Z,99792.84
2022-11-04T05:36:42.458Z,99793.69
2022-11-04T05:39:13.584Z,99804.59
2022-11-04T05:41:40.855Z,99796.66
2022-11-04T05:44:09.762Z,99806.41
2022-11-04T05:46:36.856Z,99814.38
2022-11-04T05:49:04.813Z,99816.09
2022-11-04T05:51:32.258Z,99816.19
2022-11-04T05:53:59.429Z,99818.63
2022-11-04T05:56:26.478Z,99816.91
2022-11-04T05:58:54.076Z,99827.53
2022-11-04T06:01:29.030Z,99832.91
2022-11-04T06:03:58.120Z,99837.31
2022-11-04T06:06:28.057Z,99835.34
2022-11-04T06:08:56.932Z,99842.56
2022-11-04T06:11:25.018Z,99832.50
2022-11-04T06:13:54.858Z,99832.66
2022-11-04T06:16:22.495Z,99827.13
2022-11-04T06:18:49.920Z,99834.47
2022-11-04T06:21:18.269Z,99828.09
2022-11-04T06:23:45.553Z,99826.41
2022-11-04T06:26:13.325Z,99822.03
2022-11-04T06:28:40.610Z,99841.97
2022-11-04T06:31:10.371Z,99845.81
2022-11-04T06:33:37.698Z,99855.28
2022-11-04T06:36:08.462Z,99856.41
2022-11-04T06:38:37.904Z,99868.59
2022-11-04T06:41:11.239Z,99882.03
2022-11-04T06:43:39.052Z,99891.25
2022-11-04T06:46:06.461Z,99891.53
2022-11-04T06:48:33.521Z,99897.03
2022-11-04T06:51:01.291Z,99904.28
2022-11-04T06:53:29.320Z,99911.63
2022-11-04T06:56:03.890Z,99906.25
2022-11-04T06:58:30.991Z,99916.75
2022-11-04T07:00:58.087Z,99921.25
2022-11-04T07:03:25.233Z,99917.59
2022-11-04T07:05:52.167Z,99917.44
2022-11-04T07:08:19.257Z,99921.72
2022-11-04T07:10:46.552Z,99934.03
2022-11-04T07:13:14.200Z,99948.06
2022-11-04T07:15:41.381Z,99952.59
2022-11-04T07:18:08.597Z,99957.56
2022-11-04T07:20:38.865Z,99957.44
2022-11-04T07:23:06.033Z,99951.09
2022-11-04T07:25:32.948Z,99952.75
2022-11-04T07:28:02.361Z,99953.88
2022-11-04T07:30:30.042Z,99961.28
2022-11-04T07:32:57.003Z,99956.97
2022-11-04T07:35:23.976Z,99959.69
2022-11-04T07:37:51.309Z,99959.81
2022-11-04T07:40:18.490Z,99962.66
2022-11-04T07:42:45.410Z,99955.72
2022-11-04T07:45:17.504Z,99964.78
2022-11-04T07:47:44.635Z,99970.56
2022-11-04T07:50:11.914Z,99968.56
2022-11-04T07:52:39.126Z,99969.56
2022-11-04T07:55:06.677Z,99971.13
2022-11-04T07:57:33.751Z,99972.03
2022-11-04T08:00:00.771Z,99966.38
2022-11-04T08:02:33.950Z,99962.75
2022-11-04T08:05:02.080Z,99964.72
2022-11-04T08:07:29.067Z,99956.09
2022-11-04T08:09:56.241Z,99959.66
2022-11-04T08:12:24.260Z,99972.66
2022-11-04T08:14:51.882Z,99971.94
2022-11-04T08:17:18.880Z,99978.03
2022-11-04T08:19:45.886Z,99979.03
2022-11-04T08:22:13.113Z,99984.97
2022-11-04T08:24:40.434Z,99991.38
2022-11-04T08:27:08.139Z,100002.00
2022-11-04T08:29:35.889Z,100012.22
2022-11-04T08:32:03.363Z,99999.91
2022-11-04T08:34:30.828Z,100005.03
2022-11-04T08:36:58.804Z,100006.53
2022-11-04T08:39:26.319Z,100015.47
2022-11-04T08:41:53.992Z,100017.34
2022-11-04T08:44:22.368Z,100020.03
2022-11-04T08:46:49.296Z,100023.41
2022-11-04T08:49:20.646Z,100021.31
2022-11-04T08:51:56.389Z,100026.13
2022-11-04T08:54:25.241Z,100024.28
2022-11-04T08:56:52.469Z,100028.00
2022-11-04T08:59:19.501Z,100025.44
2022-11-04T09:01:46.458Z,100022.97
2022-11-04T09:04:14.104Z,100024.91
2022-11-04T09:06:44.859Z,100020.28
2022-11-04T09:09:16.183Z,100031.75
2022-11-04T09:11:44.955Z,100033.56
2022-11-04T09:14:12.338Z,100040.41
2022-11-04T09:16:41.525Z,100045.03
2022-11-04T09:19:09.141Z,100055.13
2022-11-04T09:21:36.430Z,100062.91
2022-11-04T09:24:03.646Z,100066.16
2022-11-04T09:26:31.376Z,100067.31
2022-11-04T09:28:59.354Z,100064.66
2022-11-04T09:31:29.478Z,100063.25
2022-11-04T09:33:56.684Z,100054.91
2022-11-04T09:36:24.457Z,100051.78
2022-11-04T09:38:52.045Z,100048.81
2022-11-04T09:41:48.358Z,100064.03
2022-11-04T09:45:06.967Z,100056.81
2022-11-04T09:47:28.620Z,100066.31
2022-11-04T09:49:59.286Z,100074.41
2022-11-04T09:52:44.572Z,100069.28
2022-11-04T09:55:33.236Z,100076.25
2022-11-04T09:58:00.769Z,100071.00
2022-11-04T10:00:32.472Z,100073.41
2022-11-04T10:03:48.158Z,100064.31
2022-11-04T10:06:45.760Z,100073.41
2022-11-04T10:09:49.746Z,100085.50
2022-11-04T10:12:43.772Z,100088.88
2022-11-04T10:15:38.263Z,100084.06
2022-11-04T10:18:38.139Z,100074.25
2022-11-04T10:21:47.588Z,100076.41
2022-11-04T10:24:43.369Z,100086.63
2022-11-04T10:27:19.978Z,100087.03
2022-11-04T10:30:15.740Z,100080.19
2022-11-04T10:33:19.410Z,100097.78
2022-11-04T10:35:58.676Z,100090.69
2022-11-04T10:38:51.784Z,100093.56
2022-11-04T10:41:24.657Z,100091.56
2022-11-04T10:43:57.009Z,100098.25
2022-11-04T10:47:04.342Z,100108.06
2022-11-04T10:50:26.578Z,100107.91
2022-11-04T10:52:43.270Z,100109.09
2022-11-04T10:55:33.448Z,100110.59
2022-11-04T10:58:01.332Z,100104.19
2022-11-04T11:00:39.853Z,100104.16
2022-11-04T11:03:34.324Z,100109.78
2022-11-04T11:06:14.669Z,100122.56
2022-11-04T11:08:44.089Z,100119.63
2022-11-04T11:11:12.630Z,100120.91
2022-11-04T11:13:43.537Z,100116.44
2022-11-04T11:16:24.945Z,100115.91
2022-11-04T11:19:11.666Z,100122.78
2022-11-04T11:21:49.440Z,100124.41
2022-11-04T11:24:23.175Z,100137.22
2022-11-04T11:26:57.044Z,100141.16
2022-11-04T11:29:40.212Z,100146.84
2022-11-04T11:32:27.868Z,100154.00
2022-11-04T11:34:55.250Z,100143.53
2022-11-04T11:37:25.778Z,100145.78
2022-11-04T11:39:52.876Z,100150.19
2022-11-04T11:42:20.481Z,100148.00
2022-11-04T11:44:57.087Z,100140.19
2022-11-04T11:47:29.795Z,100145.56
2022-11-04T11:50:29.996Z,100133.41
2022-11-04T11:53:18.381Z,100132.94
2022-11-04T11:56:11.718Z,100129.97
2022-11-04T12:02:53.258Z,100140.00
2022-11-04T12:11:55.656Z,100140.34
2022-11-04T12:14:58.038Z,100127.56
2022-11-04T12:17:51.875Z,100135.09
2022-11-04T12:20:56.110Z,100127.94
2022-11-04T12:23:57.754Z,100129.78
2022-11-04T12:26:48.629Z,100119.91
2022-11-04T12:30:06.900Z,100125.19
2022-11-04T12:33:11.017Z,100117.88
2022-11-04T12:36:11.045Z,100125.34
2022-11-04T12:39:02.719Z,100119.41
2022-11-04T12:42:21.899Z,100122.16
2022-11-04T12:45:25.001Z,100116.69
2022-11-04T12:48:00.473Z,100119.56
2022-11-04T12:50:40.920Z,100119.59
2022-11-04T12:53:42.998Z,100120.41
2022-11-04T12:56:18.424Z,100117.38
2022-11-04T12:59:09.892Z,100131.88
2022-11-04T13:01:47.032Z,100134.13
2022-11-04T13:05:07.597Z,100144.53
2022-11-04T13:07:43.082Z,100145.56
2022-11-04T13:10:22.800Z,100150.88
2022-11-04T13:12:52.652Z,100161.38
2022-11-04T13:15:23.897Z,100158.47
2022-11-04T13:17:58.994Z,100164.78
2022-11-04T13:20:45.095Z,100163.06
2022-11-04T13:23:31.008Z,100162.03
2022-11-04T13:25:59.924Z,100170.66
2022-11-04T13:28:27.094Z,100181.94
2022-11-04T13:31:08.825Z,100176.97
2022-11-04T13:34:00.500Z,100178.78
2022-11-04T13:36:53.714Z,100189.56
2022-11-04T13:39:34.075Z,100188.00
2022-11-04T13:42:42.455Z,100196.41
2022-11-04T13:45:16.430Z,100199.38
2022-11-04T13:47:57.619Z,100200.34
2022-11-04T13:50:37.697Z,100197.88
2022-11-04T13:53:09.496Z,100189.97
2022-11-04T13:55:49.902Z,100194.28
2022-11-04T13:58:26.081Z,100196.03
2022-11-04T14:01:31.788Z,100202.31
2022-11-04T14:04:13.529Z,100210.81
2022-11-04T14:07:04.030Z,100213.91
2022-11-04T14:09:42.954Z,100216.78
2022-11-04T14:12:18.847Z,100217.78
2022-11-04T14:15:05.161Z,100218.03
2022-11-04T14:17:35.112Z,100229.69
2022-11-04T14:20:14.110Z,100229.13
2022-11-04T14:22:43.924Z,100235.25
2022-11-04T14:25:35.228Z,100243.03
2022-11-04T14:28:18.858Z,100253.03
2022-11-04T14:30:59.518Z,100254.66
2022-11-04T14:33:53.749Z,100267.41
2022-11-04T14:36:20.953Z,100273.28
2022-11-04T14:39:08.271Z,100275.06
2022-11-04T14:41:41.378Z,100272.94
2022-11-04T14:44:38.383Z,100282.50
2022-11-04T14:47:28.920Z,100286.69
2022-11-04T14:49:59.019Z,100290.69
2022-11-04T14:52:38.569Z,100291.13
2022-11-04T14:55:13.692Z,100299.72
2022-11-04T14:57:44.512Z,100295.91
2022-11-04T15:00:23.298Z,100303.63
2022-11-04T15:03:27.599Z,100305.63
2022-11-04T15:06:03.246Z,100312.28
2022-11-04T15:08:40.991Z,100312.28
2022-11-04T15:11:16.619Z,100316.84
2022-11-04T15:13:46.297Z,100315.47
2022-11-04T15:16:26.896Z,100321.31
2022-11-04T15:18:56.508Z,100317.00
2022-11-04T15:21:24.324Z,100326.59
2022-11-04T15:23:53.695Z,100323.47
2022-11-04T15:26:30.432Z,100334.44
2022-11-04T15:29:11.490Z,100328.75
2022-11-04T15:31:52.908Z,100330.72
2022-11-04T15:34:20.896Z,100334.59
2022-11-04T15:36:49.860Z,100338.72
2022-11-04T15:39:20.274Z,100348.97
2022-11-04T15:42:08.956Z,100338.19
2022-11-04T15:44:38.549Z,100346.44
2022-11-04T15:47:17.620Z,100349.97
2022-11-04T15:49:46.703Z,100352.41
2022-11-04T15:52:24.861Z,100356.69
2022-11-04T15:54:55.020Z,100371.19
2022-11-04T15:57:29.636Z,100376.59
2022-11-04T16:00:26.774Z,100370.88
2022-11-04T16:02:57.531Z,100378.69
2022-11-04T16:05:35.853Z,100379.53
2022-11-04T16:08:21.734Z,100383.78
2022-11-04T16:10:49.539Z,100392.56
2022-11-04T16:13:16.403Z,100379.72
2022-11-04T16:16:09.387Z,100377.84
2022-11-04T16:18:39.393Z,100390.50
2022-11-04T16:21:22.052Z,100387.75
2022-11-04T16:23:54.451Z,100392.97
2022-11-04T16:26:38.592Z,100395.09
2022-11-04T16:29:22.128Z,100393.09
2022-11-04T16:32:08.259Z,100402.44
2022-11-04T16:34:35.741Z,100402.84
2022-11-04T16:37:02.895Z,100393.88
2022-11-04T16:39:30.807Z,100407.16
2022-11-04T16:41:57.804Z,100418.75
2022-11-04T16:44:26.064Z,100423.66
2022-11-04T16:46:54.106Z,100420.06
2022-11-04T16:49:23.593Z,100426.69
2022-11-04T16:51:57.256Z,100426.50
2022-11-04T16:54:25.358Z,100432.03
2022-11-04T16:56:53.817Z,100427.03
2022-11-04T16:59:21.161Z,100438.31
2022-11-04T17:01:48.105Z,100434.81
2022-11-04T17:04:15.525Z,100431.03
2022-11-04T17:06:43.411Z,100434.25
2022-11-04T17:09:24.128Z,100435.22
2022-11-04T17:11:51.180Z,100430.06
2022-11-04T17:14:18.158Z,100438.66
2022-11-04T17:16:45.073Z,100443.69
2022-11-04T17:19:16.565Z,100438.97
2022-11-04T17:21:45.234Z,100439.06
2022-11-04T17:24:12.599Z,100439.34
2022-11-04T17:26:39.656Z,100435.78
2022-11-04T17:29:06.670Z,100446.56
2022-11-04T17:31:34.116Z,100450.22
2022-11-04T17:34:01.263Z,100455.59
2022-11-04T17:36:28.339Z,100456.59
2022-11-04T17:38:55.275Z,100466.50
2022-11-04T17:41:40.853Z,100460.28
2022-11-04T17:44:07.992Z,100463.94
2022-11-04T17:46:35.360Z,100461.25
2022-11-04T17:49:23.580Z,100461.50
2022-11-04T17:51:57.241Z,100469.81
2022-11-04T17:54:27.215Z,100475.59
2022-11-04T17:56:54.186Z,100475.84
2022-11-04T17:59:21.189Z,100483.19
2022-11-04T18:01:48.753Z,100474.63
2022-11-04T18:04:22.280Z,100475.97
2022-11-04T18:06:50.965Z,100472.91
2022-11-04T18:09:19.075Z,100476.22
2022-11-04T18:12:05.336Z,100484.75
2022-11-04T18:14:33.167Z,100491.97
2022-11-04T18:17:00.355Z,100493.44
2022-11-04T18:19:28.301Z,100506.88
2022-11-04T18:21:55.228Z,100505.16
2022-11-04T18:24:22.926Z,100509.09
2022-11-04T18:26:50.240Z,100514.56
2022-11-04T18:29:17.582Z,100517.50
2022-11-04T18:31:53.713Z,100525.59
2022-11-04T18:34:26.490Z,100523.13
2022-11-04T18:36:54.380Z,100517.25
2022-11-04T18:39:41.723Z,100519.06
2022-11-04T18:42:15.238Z,100530.31
2022-11-04T18:44:52.717Z,100532.38
2022-11-04T18:47:26.868Z,100529.69
2022-11-04T18:50:08.920Z,100531.53
2022-11-04T18:52:42.514Z,100535.28
2022-11-04T18:55:24.644Z,100525.00
2022-11-04T18:58:07.997Z,100544.81
2022-11-04T19:00:37.551Z,100542.25
2022-11-04T19:03:04.646Z,100541.28
2022-11-04T19:05:31.759Z,100541.41
2022-11-04T19:07:58.718Z,100546.78
2022-11-04T19:10:25.823Z,100545.41
2022-11-04T19:13:11.031Z,100543.56
2022-11-04T19:15:38.234Z,100548.28
2022-11-04T19:18:05.459Z,100554.75
2022-11-04T19:20:33.358Z,100554.25
2022-11-04T19:23:00.294Z,100559.09
2022-11-04T19:25:27.453Z,100561.50
2022-11-04T19:28:18.782Z,100570.78
2022-11-04T19:30:41.841Z,100572.28
2022-11-04T19:33:08.933Z,100579.94
2022-11-04T19:35:38.104Z,100571.50
2022-11-04T19:38:07.004Z,100585.47
2022-11-04T19:40:34.632Z,100581.53
2022-11-04T19:43:10.738Z,100590.03
2022-11-04T19:45:43.331Z,100591.31
2022-11-04T19:48:10.809Z,100579.19
2022-11-04T19:50:49.173Z,100599.06
2022-11-04T19:53:16.950Z,100593.28
2022-11-04T19:55:54.796Z,100591.78
2022-11-04T19:58:23.256Z,100603.63
2022-11-04T20:00:51.051Z,100602.94
2022-11-04T20:03:18.159Z,100613.03
2022-11-04T20:05:45.457Z,100608.75
2022-11-04T20:08:13.161Z,100614.25
2022-11-04T20:10:43.002Z,100620.88
2022-11-04T20:13:37.360Z,100621.31
2022-11-04T20:16:21.011Z,100625.59
2022-11-04T20:18:51.860Z,100625.16
2022-11-04T20:21:20.858Z,100632.78
2022-11-04T20:23:48.161Z,100631.16
2022-11-04T20:26:20.785Z,100641.88
2022-11-04T20:28:48.219Z,100644.69
2022-11-04T20:31:19.976Z,100636.81
2022-11-04T20:33:49.080Z,100639.50
2022-11-04T20:36:20.478Z,100645.00
2022-11-04T20:38:47.519Z,100649.69
2022-11-04T20:41:19.702Z,100656.97
2022-11-04T20:43:49.161Z,100652.69
2022-11-04T20:46:20.671Z,100665.56
2022-11-04T20:48:48.520Z,100665.56
2022-11-04T20:51:18.759Z,100670.81
2022-11-04T20:53:46.089Z,100675.22
2022-11-04T20:56:17.329Z,100679.72
2022-11-04T20:58:47.033Z,100678.41
2022-11-04T21:01:26.195Z,100684.63
2022-11-04T21:04:02.705Z,100687.63
2022-11-04T21:06:30.234Z,100687.81
2022-11-04T21:09:00.624Z,100686.09
2022-11-04T21:11:31.841Z,100699.72
2022-11-04T21:13:59.922Z,100684.31
2022-11-04T21:16:27.327Z,100704.63
2022-11-04T21:18:55.326Z,100702.84
2022-11-04T21:21:22.979Z,100708.22
2022-11-04T21:23:51.206Z,100707.56
2022-11-04T21:26:24.657Z,100716.66
2022-11-04T21:28:56.751Z,100721.56
2022-11-04T21:31:25.414Z,100721.84
2022-11-04T21:33:53.823Z,100723.88
2022-11-04T21:36:22.365Z,100721.59
2022-11-04T21:38:49.928Z,100724.38
2022-11-04T21:41:23.067Z,100735.16
2022-11-04T21:43:55.289Z,100732.78
2022-11-04T21:46:22.922Z,100746.28
2022-11-04T21:48:49.797Z,100740.25
2022-11-04T21:51:21.894Z,100736.03
2022-11-04T21:53:49.132Z,100742.56
2022-11-04T21:56:28.388Z,100754.34
2022-11-04T21:58:56.434Z,100753.69
2022-11-04T22:01:28.628Z,100745.81
2022-11-04T22:04:01.403Z,100758.44
2022-11-04T22:06:34.803Z,100766.75
2022-11-04T22:09:06.237Z,100766.88
2022-11-04T22:11:39.846Z,100765.03
2022-11-04T22:14:08.579Z,100757.97
2022-11-04T22:16:39.089Z,100759.78
2022-11-04T22:19:10.520Z,100761.63
2022-11-04T22:21:41.118Z,100767.25
2022-11-04T22:24:18.001Z,100772.78
2022-11-04T22:26:44.961Z,100768.59
2022-11-04T22:29:11.846Z,100766.09
2022-11-04T22:31:42.796Z,100774.22
2022-11-04T22:34:09.943Z,100780.41
2022-11-04T22:36:37.844Z,100779.56
2022-11-04T22:39:05.688Z,100776.97
2022-11-04T22:41:35.536Z,100771.81
2022-11-04T22:44:03.277Z,100779.09
2022-11-04T22:46:32.751Z,100791.69
2022-11-04T22:48:59.910Z,100786.72
2022-11-04T22:51:27.800Z,100794.75
2022-11-04T22:54:01.363Z,100796.75
2022-11-04T22:56:31.802Z,100792.63
2022-11-04T22:59:00.351Z,100798.91
2022-11-04T23:01:27.450Z,100794.63
2022-11-04T23:03:54.527Z,100800.06
2022-11-04T23:06:21.558Z,100803.03
2022-11-04T23:08:49.162Z,100805.97
2022-11-04T23:11:41.859Z,100807.00
2022-11-04T23:14:36.323Z,100803.28
2022-11-04T23:17:43.113Z,100807.50
2022-11-04T23:20:14.257Z,100812.84
2022-11-04T23:23:00.818Z,100807.50
2022-11-04T23:25:27.913Z,100804.81
2022-11-04T23:28:14.553Z,100803.19
2022-11-04T23:30:51.270Z,100815.63
2022-11-04T23:33:18.637Z,100812.16
2022-11-04T23:36:07.499Z,100811.31
2022-11-04T23:38:35.560Z,100826.31
2022-11-04T23:41:25.776Z,100814.84
2022-11-04T23:43:52.850Z,100825.63
2022-11-04T23:46:52.312Z,100825.63
2022-11-04T23:49:38.024Z,100825.81
2022-11-04T23:52:23.698Z,100829.34
2022-11-04T23:55:09.754Z,100825.81
2022-11-04T23:57:55.369Z,100824.06
